Time;durP1;ratioP1;P1;durP2;ratioP2;P2;SDS_P1;SDS_P2;PMS_P1;PMS_P2;Temp;Humidity;BMP_temperature;BMP_pressure;BME280_temperature;BME280_humidity;BME280_pressure;Samples;Min_cycle;Max_cycle;Signal;HPM_P1;HPM_P2
2022/04/10 00:00:49;;;;;;;4.60;0.50;;;3.70;99.90;;;;;;4990574;28;20491;-78
2022/04/10 00:03:14;;;;;;;10.70;1.10;;;3.70;99.90;;;;;;4991027;28;20045;-78
2022/04/10 00:05:40;;;;;;;5.65;0.68;;;3.70;99.90;;;;;;4970313;28;20121;-78
2022/04/10 00:08:06;;;;;;;5.75;0.80;;;3.80;99.90;;;;;;4970778;28;20105;-78
2022/04/10 00:10:32;;;;;;;7.57;0.75;;;3.80;99.90;;;;;;4983740;28;20419;-78
2022/04/10 00:12:58;;;;;;;7.00;1.00;;;3.80;99.90;;;;;;4970379;28;20552;-78
2022/04/10 00:15:24;;;;;;;5.30;0.70;;;3.80;99.90;;;;;;4954660;28;20117;-78
2022/04/10 00:17:49;;;;;;;9.48;1.10;;;3.80;99.90;;;;;;4971057;28;20061;-78
2022/04/10 00:20:15;;;;;;;5.85;0.95;;;3.80;99.90;;;;;;4972159;28;20046;-78
2022/04/10 00:22:46;;;;;;;14.73;1.30;;;3.80;99.90;;;;;;4969345;28;20057;-78
2022/04/10 00:25:14;;;;;;;8.82;1.10;;;3.80;99.90;;;;;;4969962;28;20053;-79
2022/04/10 00:27:41;;;;;;;7.75;0.88;;;3.80;99.90;;;;;;4966260;28;20049;-78
2022/04/10 00:30:12;;;;;;;8.35;1.30;;;3.90;99.90;;;;;;4967969;28;21168;-79
2022/04/10 00:32:38;;;;;;;12.88;1.27;;;3.90;99.90;;;;;;4968704;28;20090;-78
2022/04/10 00:35:07;;;;;;;12.75;1.10;;;3.90;99.90;;;;;;4968477;28;20085;-78
2022/04/10 00:37:37;;;;;;;7.90;0.90;;;4.00;99.90;;;;;;4984956;28;20503;-78
2022/04/10 00:40:08;;;;;;;9.68;1.40;;;4.00;99.90;;;;;;4966306;28;20051;-78
2022/04/10 00:42:36;;;;;;;7.00;0.82;;;4.00;99.90;;;;;;4966677;28;20050;-78
2022/04/10 00:45:06;;;;;;;3.65;0.70;;;4.00;99.90;;;;;;4953484;28;20046;-78
2022/04/10 00:47:32;;;;;;;7.00;1.20;;;4.10;99.90;;;;;;4971241;28;20514;-78
2022/04/10 00:49:59;;;;;;;9.82;1.75;;;4.00;99.90;;;;;;4967954;28;20039;-78
2022/04/10 00:52:26;;;;;;;7.10;1.30;;;4.00;99.90;;;;;;4968468;28;20101;-78
2022/04/10 00:54:52;;;;;;;8.35;0.95;;;4.00;99.90;;;;;;4968786;28;20058;-78
2022/04/10 00:57:19;;;;;;;5.93;1.52;;;4.00;99.90;;;;;;4953171;28;20042;-78
2022/04/10 00:59:45;;;;;;;6.25;0.73;;;3.90;99.90;;;;;;4969188;28;20131;-78
2022/04/10 01:02:11;;;;;;;8.35;1.13;;;3.80;99.90;;;;;;4949912;28;20034;-77
2022/04/10 01:04:37;;;;;;;7.35;1.08;;;3.80;99.90;;;;;;4971510;28;20035;-78
2022/04/10 01:07:04;;;;;;;7.97;1.48;;;3.80;99.90;;;;;;4990888;28;20046;-77
2022/04/10 01:09:31;;;;;;;10.35;1.88;;;3.80;99.90;;;;;;4971305;28;20129;-77
2022/04/10 01:11:57;;;;;;;5.60;0.95;;;3.80;99.90;;;;;;4982321;28;20451;-78
2022/04/10 01:14:23;;;;;;;11.93;1.02;;;3.80;99.90;;;;;;4969305;28;20069;-77
2022/04/10 01:16:48;;;;;;;12.98;0.95;;;3.80;99.90;;;;;;4988270;28;20108;-78
2022/04/10 01:19:16;;;;;;;9.70;1.00;;;3.80;99.90;;;;;;4971432;28;20035;-78
2022/04/10 01:21:44;;;;;;;7.40;0.90;;;3.80;99.90;;;;;;4974514;28;20046;-77
2022/04/10 01:24:19;;;;;;;8.57;1.33;;;3.80;99.90;;;;;;4971849;28;20071;-78
2022/04/10 01:26:46;;;;;;;6.30;0.70;;;3.80;99.90;;;;;;4957230;28;20495;-77
2022/04/10 01:29:13;;;;;;;4.65;0.60;;;3.70;99.90;;;;;;4970437;28;20046;-77
2022/04/10 01:31:44;;;;;;;5.80;0.90;;;3.70;99.90;;;;;;4988894;28;20093;-77
2022/04/10 01:34:13;;;;;;;9.93;1.88;;;3.70;99.90;;;;;;4988523;28;20435;-77
2022/04/10 01:36:40;;;;;;;6.28;1.27;;;3.80;99.90;;;;;;4972173;28;20042;-77
2022/04/10 01:39:07;;;;;;;8.65;1.23;;;3.80;99.90;;;;;;4977229;28;20121;-77
2022/04/10 01:41:37;;;;;;;4.20;0.90;;;3.90;99.90;;;;;;4988270;28;20045;-77
2022/04/10 01:44:05;;;;;;;10.30;1.00;;;3.90;99.90;;;;;;4974537;28;20129;-77
2022/04/10 01:46:32;;;;;;;3.75;0.68;;;3.90;99.90;;;;;;4989970;28;20035;-77
2022/04/10 01:48:58;;;;;;;7.55;0.85;;;4.00;99.90;;;;;;4989551;28;20108;-77
2022/04/10 01:51:24;;;;;;;8.48;1.23;;;4.00;99.90;;;;;;4989011;28;20506;-77
2022/04/10 01:53:51;;;;;;;5.50;0.90;;;4.00;99.90;;;;;;4968586;28;20104;-77
2022/04/10 01:56:17;;;;;;;6.00;0.85;;;3.90;99.90;;;;;;4970832;28;20216;-77
2022/04/10 01:58:44;;;;;;;6.43;2.00;;;4.00;99.90;;;;;;4971534;28;20676;-77
2022/04/10 02:01:11;;;;;;;5.45;0.73;;;4.00;99.90;;;;;;4987192;28;20038;-77
2022/04/10 02:03:38;;;;;;;6.72;0.98;;;4.00;99.90;;;;;;4972136;28;20031;-77
2022/04/10 02:06:06;;;;;;;7.03;0.75;;;4.10;99.90;;;;;;4975269;28;20516;-77
2022/04/10 02:08:33;;;;;;;8.48;1.10;;;4.20;99.90;;;;;;4987042;28;20042;-77
2022/04/10 02:10:59;;;;;;;9.32;0.70;;;4.20;99.90;;;;;;4973237;28;20046;-77
2022/04/10 02:13:25;;;;;;;8.55;1.17;;;4.20;99.90;;;;;;4984761;28;20039;-77
2022/04/10 02:15:51;;;;;;;7.72;0.80;;;4.20;99.90;;;;;;4983826;28;20062;-77
2022/04/10 02:18:17;;;;;;;9.10;1.13;;;4.30;99.90;;;;;;4969647;28;20066;-77
2022/04/10 02:20:43;;;;;;;7.30;1.38;;;4.30;99.90;;;;;;4955042;28;20487;-77
2022/04/10 02:23:09;;;;;;;5.28;1.20;;;4.30;99.90;;;;;;4983939;28;20049;-77
2022/04/10 02:25:34;;;;;;;14.43;1.30;;;4.30;99.90;;;;;;4985462;28;20038;-77
2022/04/10 02:28:01;;;;;;;7.90;1.13;;;4.30;99.90;;;;;;4971985;28;20050;-77
2022/04/10 02:30:26;;;;;;;8.55;0.93;;;4.20;99.90;;;;;;4986133;28;20407;-77
2022/04/10 02:32:52;;;;;;;5.85;0.90;;;4.20;99.90;;;;;;4970050;28;20034;-77
2022/04/10 02:35:18;;;;;;;7.35;0.75;;;4.20;99.90;;;;;;4986011;28;20087;-77
2022/04/10 02:37:46;;;;;;;9.48;1.35;;;4.20;99.90;;;;;;4971242;28;20121;-77
2022/04/10 02:40:14;;;;;;;9.07;1.60;;;4.10;99.90;;;;;;4970665;28;20042;-77
2022/04/10 02:42:40;;;;;;;9.65;1.20;;;4.10;99.90;;;;;;4955170;28;20046;-77
2022/04/10 02:45:07;;;;;;;6.38;0.80;;;4.20;99.90;;;;;;4990908;28;20503;-77
2022/04/10 02:47:33;;;;;;;7.47;1.38;;;4.20;99.90;;;;;;4957375;28;20050;-77
2022/04/10 02:49:59;;;;;;;10.80;1.27;;;4.30;99.90;;;;;;4971877;28;20106;-77
2022/04/10 02:52:25;;;;;;;6.68;0.63;;;4.30;99.90;;;;;;4968233;28;20541;-77
2022/04/10 02:54:51;;;;;;;6.10;0.77;;;4.20;99.90;;;;;;4969254;28;20034;-77
2022/04/10 02:57:16;;;;;;;6.05;1.02;;;4.10;99.90;;;;;;4968593;28;20456;-77
2022/04/10 02:59:42;;;;;;;11.70;1.15;;;4.10;99.90;;;;;;4954023;28;20129;-77
2022/04/10 03:02:08;;;;;;;7.45;0.80;;;4.10;99.90;;;;;;4973653;28;20139;-77
2022/04/10 03:04:33;;;;;;;6.57;1.33;;;4.00;99.90;;;;;;4987524;28;20120;-77
2022/04/10 03:06:59;;;;;;;6.80;1.20;;;4.00;99.90;;;;;;4957272;28;20061;-77
2022/04/10 03:09:24;;;;;;;10.82;0.90;;;4.00;99.90;;;;;;4984697;28;20390;-76
2022/04/10 03:11:50;;;;;;;6.68;0.90;;;4.00;99.90;;;;;;4987023;28;20512;-77
2022/04/10 03:14:16;;;;;;;6.40;1.08;;;4.00;99.90;;;;;;4969879;28;20034;-77
2022/04/10 03:16:42;;;;;;;3.92;0.98;;;4.10;99.90;;;;;;4967946;28;20456;-77
2022/04/10 03:19:08;;;;;;;5.13;0.55;;;4.10;99.90;;;;;;4970026;28;20034;-77
2022/04/10 03:21:34;;;;;;;7.68;0.60;;;4.10;99.90;;;;;;4971052;28;20101;-77
2022/04/10 03:24:01;;;;;;;4.82;0.60;;;4.10;99.90;;;;;;4988719;28;20146;-77
2022/04/10 03:26:27;;;;;;;4.38;0.50;;;4.00;99.90;;;;;;4970577;28;20403;-77
2022/04/10 03:28:53;;;;;;;4.97;0.73;;;4.00;99.90;;;;;;4977738;28;20126;-77
2022/04/10 03:31:20;;;;;;;4.88;0.73;;;3.90;99.90;;;;;;4974243;28;20077;-76
2022/04/10 03:33:46;;;;;;;2.47;0.47;;;3.80;99.90;;;;;;4996877;28;20061;-77
2022/04/10 03:36:12;;;;;;;4.78;0.70;;;3.70;99.90;;;;;;4994451;28;20049;-77
2022/04/10 03:38:38;;;;;;;5.53;0.63;;;3.70;99.90;;;;;;4978071;28;20092;-78
2022/04/10 03:41:04;;;;;;;4.40;0.70;;;3.60;99.90;;;;;;4973762;28;20125;-77
2022/04/10 03:43:32;;;;;;;4.75;0.70;;;3.60;99.90;;;;;;4992055;28;20050;-77
2022/04/10 03:45:58;;;;;;;7.95;0.65;;;3.60;99.90;;;;;;4973430;28;20049;-77
2022/04/10 03:48:24;;;;;;;8.05;1.02;;;3.50;99.90;;;;;;4990206;28;20104;-77
2022/04/10 03:50:49;;;;;;;5.05;0.70;;;3.60;99.90;;;;;;4975883;28;20507;-77
2022/04/10 03:53:15;;;;;;;9.50;1.05;;;3.60;99.90;;;;;;4973214;28;20031;-77
2022/04/10 03:55:41;;;;;;;2.45;0.30;;;3.60;99.90;;;;;;4973704;28;20038;-78
2022/04/10 03:58:06;;;;;;;5.43;0.57;;;3.60;99.90;;;;;;4960620;28;20034;-77
2022/04/10 04:00:32;;;;;;;5.47;0.73;;;3.70;99.90;;;;;;4973555;28;20073;-77
2022/04/10 04:02:57;;;;;;;4.75;0.70;;;3.70;99.90;;;;;;4968278;28;20103;-77
2022/04/10 04:05:23;;;;;;;6.25;0.47;;;3.70;99.90;;;;;;4964345;28;20078;-77
2022/04/10 04:07:49;;;;;;;8.75;0.70;;;3.80;99.90;;;;;;4988697;28;20047;-77
2022/04/10 04:10:14;;;;;;;6.40;0.70;;;3.90;99.90;;;;;;4985156;28;20051;-77
2022/04/10 04:12:40;;;;;;;5.70;0.90;;;4.00;99.90;;;;;;4973478;28;20043;-77
2022/04/10 04:15:06;;;;;;;5.15;0.60;;;4.00;99.90;;;;;;4964788;28;21053;-77
2022/04/10 04:17:32;;;;;;;2.40;0.70;;;4.00;99.90;;;;;;4957243;28;20058;-77
2022/04/10 04:19:58;;;;;;;3.60;0.57;;;4.00;99.90;;;;;;4961765;28;20082;-77
2022/04/10 04:22:23;;;;;;;2.05;0.30;;;4.00;99.90;;;;;;4956255;28;20101;-77
2022/04/10 04:24:49;;;;;;;5.38;0.40;;;3.90;99.90;;;;;;4969440;28;20053;-77
2022/04/10 04:27:15;;;;;;;9.00;0.80;;;3.90;99.90;;;;;;4958116;28;20081;-77
2022/04/10 04:29:40;;;;;;;4.65;0.98;;;3.90;99.90;;;;;;4957686;28;20431;-77
2022/04/10 04:32:07;;;;;;;5.35;0.50;;;3.90;99.90;;;;;;4971199;28;20047;-77
2022/04/10 04:34:32;;;;;;;3.05;0.40;;;4.00;99.90;;;;;;4987521;28;20038;-77
2022/04/10 04:36:58;;;;;;;7.20;0.52;;;4.00;99.90;;;;;;4956555;28;20042;-76
2022/04/10 04:39:24;;;;;;;3.08;0.40;;;4.00;99.90;;;;;;4958627;28;20068;-77
2022/04/10 04:41:49;;;;;;;2.25;0.40;;;3.90;99.90;;;;;;4974401;28;20117;-77
2022/04/10 04:44:16;;;;;;;4.03;0.57;;;3.90;99.90;;;;;;4958073;28;20407;-77
2022/04/10 04:46:42;;;;;;;4.22;0.47;;;3.80;99.90;;;;;;4954576;28;20050;-77
2022/04/10 04:49:08;;;;;;;1.67;0.47;;;3.70;99.90;;;;;;4941707;28;20042;-77
2022/04/10 04:51:36;;;;;;;3.50;0.40;;;3.70;99.90;;;;;;4962218;28;20132;-77
2022/04/10 04:54:03;;;;;;;4.03;0.60;;;3.70;99.90;;;;;;4970398;28;20411;-76
2022/04/10 04:56:29;;;;;;;0.90;0.30;;;3.60;99.90;;;;;;4954798;28;20124;-77
2022/04/10 04:58:54;;;;;;;1.77;0.32;;;3.70;99.90;;;;;;4938004;28;20045;-77
2022/04/10 05:01:20;;;;;;;7.15;0.55;;;3.70;99.90;;;;;;4970679;28;20030;-77
2022/04/10 05:03:46;;;;;;;3.13;0.40;;;3.70;99.90;;;;;;4973071;28;20395;-77
2022/04/10 05:06:11;;;;;;;2.30;0.30;;;3.70;99.90;;;;;;4937500;28;20058;-77
2022/04/10 05:08:37;;;;;;;1.05;0.20;;;3.70;99.90;;;;;;4968932;28;20389;-77
2022/04/10 05:11:03;;;;;;;2.88;0.57;;;3.60;99.90;;;;;;4969049;28;20041;-77
2022/04/10 05:13:28;;;;;;;3.47;0.63;;;3.60;99.90;;;;;;4984955;28;20034;-77
2022/04/10 05:15:54;;;;;;;2.60;0.20;;;3.60;99.90;;;;;;4986744;28;20388;-77
2022/04/10 05:18:20;;;;;;;1.40;0.40;;;3.60;99.90;;;;;;4971737;28;20101;-77
2022/04/10 05:20:46;;;;;;;2.13;0.30;;;3.60;99.90;;;;;;4985895;28;20039;-77
2022/04/10 05:23:19;;;;;;;1.83;0.22;;;3.60;99.90;;;;;;4969534;28;20045;-77
2022/04/10 05:25:45;;;;;;;1.15;0.40;;;3.70;99.90;;;;;;4971320;28;20403;-77
2022/04/10 05:28:11;;;;;;;3.47;0.43;;;3.70;99.90;;;;;;4970866;28;20046;-77
2022/04/10 05:30:38;;;;;;;6.10;0.73;;;3.80;99.90;;;;;;4955603;28;20039;-77
2022/04/10 05:33:03;;;;;;;5.63;0.50;;;3.80;99.90;;;;;;4972009;28;20046;-77
2022/04/10 05:35:29;;;;;;;4.97;0.40;;;3.80;99.90;;;;;;4935361;28;20191;-77
2022/04/10 05:37:55;;;;;;;2.13;0.30;;;3.80;99.90;;;;;;4970757;28;20035;-77
2022/04/10 05:40:22;;;;;;;4.40;0.52;;;3.80;99.90;;;;;;4970006;28;20035;-77
2022/04/10 05:42:48;;;;;;;3.40;0.38;;;3.80;99.90;;;;;;4972426;28;20408;-77
2022/04/10 05:45:14;;;;;;;4.80;0.47;;;3.80;99.90;;;;;;4985691;28;20034;-77
2022/04/10 05:47:41;;;;;;;1.85;0.47;;;3.90;99.90;;;;;;4967762;28;20130;-77
2022/04/10 05:50:08;;;;;;;5.28;0.40;;;3.90;99.90;;;;;;4969059;28;20496;-77
2022/04/10 05:52:41;;;;;;;1.27;0.50;;;3.90;99.90;;;;;;4968810;28;20105;-77
2022/04/10 05:55:07;;;;;;;1.95;0.40;;;3.90;99.90;;;;;;4967783;28;20035;-78
2022/04/10 05:57:34;;;;;;;2.20;0.30;;;3.80;99.90;;;;;;4954947;28;20440;-77
2022/04/10 06:00:00;;;;;;;1.92;0.63;;;3.80;99.90;;;;;;4953823;28;20038;-77
2022/04/10 06:02:26;;;;;;;2.25;0.30;;;3.80;99.90;;;;;;4978189;28;20049;-77
2022/04/10 06:04:51;;;;;;;3.70;0.40;;;3.80;99.90;;;;;;4969471;28;20113;-77
2022/04/10 06:07:17;;;;;;;1.27;0.30;;;3.80;99.90;;;;;;4985064;28;20585;-77
2022/04/10 06:09:43;;;;;;;4.68;0.80;;;3.90;99.90;;;;;;4974794;28;20034;-77
2022/04/10 06:12:09;;;;;;;1.10;0.20;;;4.00;99.90;;;;;;4966219;28;20510;-78
2022/04/10 06:14:35;;;;;;;3.00;0.20;;;4.00;99.90;;;;;;5001984;28;20114;-76
2022/04/10 06:17:00;;;;;;;3.03;0.40;;;4.20;99.90;;;;;;4972473;28;20479;-77
2022/04/10 06:19:27;;;;;;;3.92;0.40;;;4.30;99.90;;;;;;4970835;28;20047;-77
2022/04/10 06:21:53;;;;;;;2.72;0.28;;;4.40;99.90;;;;;;4970557;28;20101;-77
2022/04/10 06:24:21;;;;;;;2.33;0.70;;;4.40;99.90;;;;;;5003618;28;20065;-77
2022/04/10 06:26:49;;;;;;;1.60;0.20;;;4.30;99.90;;;;;;4991638;28;20042;-76
2022/04/10 06:29:16;;;;;;;1.00;0.28;;;4.30;99.90;;;;;;4984564;28;20439;-76
2022/04/10 06:31:41;;;;;;;2.45;0.22;;;4.20;99.90;;;;;;4971282;28;20046;-77
2022/04/10 06:34:07;;;;;;;3.67;0.40;;;4.10;99.90;;;;;;4970974;28;20125;-76
2022/04/10 06:36:33;;;;;;;1.30;0.28;;;4.10;99.90;;;;;;4991756;28;20125;-77
2022/04/10 06:38:59;;;;;;;3.38;0.40;;;4.20;99.90;;;;;;5002619;28;20041;-77
2022/04/10 06:41:24;;;;;;;2.70;0.30;;;4.20;99.90;;;;;;4960350;28;20038;-77
2022/04/10 06:43:50;;;;;;;1.45;0.30;;;4.20;99.90;;;;;;4955757;28;20046;-76
2022/04/10 06:46:16;;;;;;;3.30;0.40;;;4.40;99.90;;;;;;4987333;28;20034;-77
2022/04/10 06:48:42;;;;;;;4.80;0.25;;;4.40;99.90;;;;;;5010911;28;20026;-78
2022/04/10 06:51:07;;;;;;;1.23;0.50;;;4.50;99.90;;;;;;5001036;28;20042;-78
2022/04/10 06:53:33;;;;;;;2.88;0.30;;;4.60;99.90;;;;;;4989409;28;21786;-78
2022/04/10 06:55:59;;;;;;;3.83;0.38;;;4.60;99.90;;;;;;4984025;28;20050;-77
2022/04/10 06:58:25;;;;;;;1.70;0.30;;;4.70;99.90;;;;;;4998138;28;20035;-77
2022/04/10 07:00:50;;;;;;;4.38;0.43;;;4.80;99.90;;;;;;5014082;28;20035;-77
2022/04/10 07:03:17;;;;;;;3.08;0.25;;;4.80;99.90;;;;;;4988656;28;20046;-77
2022/04/10 07:05:43;;;;;;;2.45;0.40;;;4.90;99.90;;;;;;4991108;28;20516;-77
2022/04/10 07:08:09;;;;;;;5.30;1.58;;;5.00;99.90;;;;;;4999392;28;20055;-78
2022/04/10 07:10:36;;;;;;;2.90;0.52;;;5.00;99.90;;;;;;5011248;28;20047;-77
2022/04/10 07:13:03;;;;;;;1.38;0.30;;;5.10;99.90;;;;;;4982383;28;21509;-77
2022/04/10 07:15:29;;;;;;;4.13;0.40;;;5.10;99.90;;;;;;4997272;28;20503;-77
2022/04/10 07:17:56;;;;;;;4.10;1.40;;;5.20;99.90;;;;;;4980863;28;20041;-77
2022/04/10 07:20:22;;;;;;;5.15;0.40;;;5.30;99.90;;;;;;4982771;28;20041;-77
2022/04/10 07:25:32;;;;;;;5.07;0.68;;;5.50;99.90;;;;;;4994319;28;20080;-77
2022/04/10 07:27:58;;;;;;;2.67;0.60;;;5.70;99.90;;;;;;4980387;28;20197;-77
2022/04/10 07:30:23;;;;;;;4.68;0.60;;;5.70;99.90;;;;;;4981129;28;20069;-77
2022/04/10 07:32:54;;;;;;;2.75;0.40;;;5.90;99.90;;;;;;4980037;28;20054;-78
2022/04/10 07:35:21;;;;;;;4.47;0.57;;;6.00;99.90;;;;;;4983710;28;20157;-77
2022/04/10 07:37:47;;;;;;;2.25;0.40;;;6.10;99.90;;;;;;4973320;28;20499;-77
2022/04/10 07:40:13;;;;;;;2.42;0.57;;;6.10;99.90;;;;;;4975246;28;20042;-78
2022/04/10 07:42:40;;;;;;;8.27;1.27;;;6.20;99.90;;;;;;4987617;28;20035;-77
2022/04/10 07:45:06;;;;;;;6.78;0.63;;;6.30;99.90;;;;;;4969300;28;20078;-77
2022/04/10 07:47:32;;;;;;;3.35;0.70;;;6.30;99.90;;;;;;4986310;28;20081;-77
2022/04/10 07:49:58;;;;;;;4.25;1.20;;;6.40;99.90;;;;;;5007219;28;20435;-77
2022/04/10 07:52:24;;;;;;;6.47;0.57;;;6.50;99.90;;;;;;4973319;28;20039;-77
2022/04/10 07:54:52;;;;;;;5.55;0.47;;;6.60;99.90;;;;;;4978344;28;20053;-77
2022/04/10 07:57:18;;;;;;;6.35;0.77;;;6.80;99.90;;;;;;4974807;28;20043;-77
2022/04/10 07:59:44;;;;;;;6.72;0.68;;;7.00;99.90;;;;;;4972940;28;20042;-77
2022/04/10 08:02:10;;;;;;;3.17;1.02;;;7.20;99.90;;;;;;5005215;28;20046;-77
2022/04/10 08:04:37;;;;;;;2.30;0.77;;;7.20;99.90;;;;;;4974367;28;20042;-77
2022/04/10 08:07:03;;;;;;;5.65;1.08;;;7.30;99.90;;;;;;4973282;28;20141;-77
2022/04/10 08:09:29;;;;;;;2.92;0.52;;;7.30;99.90;;;;;;4972529;28;20157;-78
2022/04/10 08:11:54;;;;;;;3.53;0.50;;;7.10;99.90;;;;;;4976949;28;20034;-77
2022/04/10 08:14:21;;;;;;;7.60;0.60;;;7.00;99.90;;;;;;4962414;28;20407;-77
2022/04/10 08:16:47;;;;;;;3.85;0.43;;;6.80;99.90;;;;;;4976535;28;20107;-77
2022/04/10 08:19:12;;;;;;;6.47;0.85;;;6.70;99.90;;;;;;4973603;28;20043;-77
2022/04/10 08:21:38;;;;;;;7.18;0.75;;;6.70;99.90;;;;;;5007606;28;20034;-78
2022/04/10 08:24:04;;;;;;;6.55;0.60;;;6.70;99.90;;;;;;4956504;28;20026;-77
2022/04/10 08:26:30;;;;;;;6.05;0.68;;;6.70;99.90;;;;;;4995639;28;20476;-77
2022/04/10 08:28:56;;;;;;;7.15;0.80;;;6.80;99.90;;;;;;4977361;28;20034;-77
2022/04/10 08:31:21;;;;;;;4.78;0.75;;;7.00;99.90;;;;;;4972557;28;20500;-77
2022/04/10 08:33:47;;;;;;;3.08;0.57;;;7.10;99.90;;;;;;4980566;28;20031;-77
2022/04/10 08:36:13;;;;;;;5.32;0.75;;;7.30;99.90;;;;;;4978274;28;20038;-77
2022/04/10 08:38:38;;;;;;;4.60;0.73;;;7.30;99.90;;;;;;4971036;28;20042;-77
2022/04/10 08:41:07;;;;;;;5.78;1.08;;;7.20;99.90;;;;;;4977775;28;20043;-77
2022/04/10 08:43:35;;;;;;;4.43;0.60;;;7.10;99.90;;;;;;5004278;28;20491;-78
2022/04/10 08:46:01;;;;;;;5.72;0.70;;;7.20;99.90;;;;;;4967181;28;20093;-77
2022/04/10 08:48:27;;;;;;;5.05;0.73;;;7.40;99.90;;;;;;4991722;28;20082;-77
2022/04/10 08:50:59;;;;;;;5.45;0.55;;;7.50;99.90;;;;;;4992422;28;20121;-76
2022/04/10 08:53:25;;;;;;;7.13;0.60;;;7.70;99.90;;;;;;4979263;28;20045;-77
2022/04/10 08:55:51;;;;;;;6.97;0.68;;;7.80;99.90;;;;;;4973316;28;20035;-78
2022/04/10 08:58:18;;;;;;;5.60;0.88;;;8.10;99.90;;;;;;5007972;28;20049;-78
2022/04/10 09:00:44;;;;;;;5.15;0.50;;;8.30;99.90;;;;;;4997975;28;20039;-77
2022/04/10 09:03:11;;;;;;;4.10;0.60;;;8.30;99.90;;;;;;4972703;28;20050;-78
2022/04/10 09:05:37;;;;;;;8.27;0.60;;;8.20;99.90;;;;;;4989324;28;20141;-77
2022/04/10 09:08:18;;;;;;;4.28;0.70;;;8.00;99.60;;;;;;4990187;28;20724;-77
2022/04/10 09:11:03;;;;;;;4.55;0.50;;;7.80;98.60;;;;;;4975161;28;20050;-78
2022/04/10 09:13:32;;;;;;;4.68;0.63;;;7.60;99.00;;;;;;4969086;28;20093;-77
2022/04/10 09:16:26;;;;;;;3.08;0.60;;;7.70;99.90;;;;;;4972503;28;20066;-77
2022/04/10 09:18:58;;;;;;;3.78;0.40;;;8.00;97.50;;;;;;4986664;28;20075;-78
2022/04/10 09:21:29;;;;;;;8.25;0.85;;;8.30;96.60;;;;;;4954533;28;20049;-78
2022/04/10 09:24:00;;;;;;;4.93;0.75;;;8.40;94.60;;;;;;4977390;28;20042;-78
2022/04/10 09:26:41;;;;;;;8.38;0.68;;;8.40;95.00;;;;;;4971702;28;20065;-77
2022/04/10 09:29:06;;;;;;;3.08;0.60;;;8.30;95.80;;;;;;4968070;28;20042;-78
2022/04/10 09:31:34;;;;;;;4.68;0.50;;;8.30;94.70;;;;;;4982538;28;20050;-78
2022/04/10 09:34:05;;;;;;;3.10;0.50;;;8.40;93.80;;;;;;4971855;28;20030;-78
2022/04/10 09:37:07;;;;;;;2.92;0.45;;;8.50;92.80;;;;;;4988103;28;20034;-78
2022/04/10 09:39:34;;;;;;;6.50;0.55;;;8.70;91.50;;;;;;4967685;28;20043;-78
2022/04/10 09:42:12;;;;;;;5.28;0.63;;;8.90;91.40;;;;;;5003482;28;20047;-78
2022/04/10 09:44:39;;;;;;;2.95;0.60;;;9.00;90.40;;;;;;4967985;28;20049;-77
2022/04/10 09:47:11;;;;;;;3.95;0.68;;;9.10;88.30;;;;;;4979396;28;20066;-78
2022/04/10 09:49:38;;;;;;;4.63;0.68;;;9.20;87.00;;;;;;4973349;28;20093;-78
2022/04/10 09:52:11;;;;;;;4.88;0.60;;;9.30;85.80;;;;;;4971915;28;20042;-77
2022/04/10 09:54:40;;;;;;;5.38;0.65;;;9.30;85.70;;;;;;4972572;28;20077;-78
2022/04/10 09:57:10;;;;;;;2.60;0.50;;;9.10;80.80;;;;;;4969443;28;20047;-77
2022/04/10 09:59:38;;;;;;;5.25;0.75;;;8.90;85.60;;;;;;4967914;28;20484;-78
2022/04/10 10:02:07;;;;;;;3.13;0.60;;;8.90;86.70;;;;;;4959270;28;20086;-78
2022/04/10 10:04:35;;;;;;;5.22;0.77;;;9.10;84.80;;;;;;4980434;28;20439;-77
2022/04/10 10:07:20;;;;;;;6.47;0.45;;;9.20;83.10;;;;;;4983695;28;20397;-78
2022/04/10 10:09:48;;;;;;;3.90;0.55;;;9.20;81.40;;;;;;4981417;28;20162;-78
2022/04/10 10:12:15;;;;;;;4.63;0.50;;;9.10;81.80;;;;;;5003232;28;20448;-78
2022/04/10 10:14:41;;;;;;;4.85;0.70;;;9.20;82.30;;;;;;4971740;28;20082;-78
2022/04/10 10:17:08;;;;;;;7.22;0.80;;;9.30;81.50;;;;;;4998557;28;20070;-77
2022/04/10 10:19:36;;;;;;;3.17;0.68;;;9.40;82.50;;;;;;4972128;28;20045;-78
2022/04/10 10:22:07;;;;;;;8.05;0.85;;;9.40;76.60;;;;;;4968044;28;20049;-78
2022/04/10 10:25:00;;;;;;;2.95;0.43;;;9.20;76.80;;;;;;4975315;28;20038;-78
2022/04/10 10:27:28;;;;;;;;;;;9.00;77.80;;;;;;4956294;28;20500;-77
2022/04/10 10:30:18;;;;;;;4.78;0.63;;;8.90;79.50;;;;;;5004327;28;19949;-77
2022/04/10 10:32:47;;;;;;;4.68;0.50;;;9.00;79.30;;;;;;4996448;28;20057;-78
2022/04/10 10:35:27;;;;;;;5.43;0.50;;;9.10;80.30;;;;;;4967067;28;20039;-78
2022/04/10 10:37:54;;;;;;;3.58;0.60;;;9.20;78.20;;;;;;4961758;28;20038;-78
2022/04/10 10:40:21;;;;;;;5.45;0.70;;;9.30;76.40;;;;;;4964183;28;20053;-78
2022/04/10 10:42:50;;;;;;;1.77;0.30;;;9.40;73.80;;;;;;4970784;28;20407;-78
2022/04/10 10:45:33;;;;;;;3.33;0.50;;;9.50;72.10;;;;;;4962118;28;20046;-78
2022/04/10 10:48:21;;;;;;;5.78;0.60;;;9.80;74.80;;;;;;4961461;28;20047;-77
2022/04/10 10:50:47;;;;;;;5.88;0.73;;;10.00;73.80;;;;;;4983708;28;20093;-78
2022/04/10 10:53:13;;;;;;;4.80;0.88;;;10.10;72.50;;;;;;4999910;28;20536;-78
2022/04/10 10:55:49;;;;;;;3.55;0.40;;;10.10;74.10;;;;;;4970051;28;20048;-78
2022/04/10 10:58:18;;;;;;;5.20;0.40;;;10.10;76.20;;;;;;4970329;28;20065;-78
2022/04/10 11:00:45;;;;;;;2.38;0.50;;;10.30;73.30;;;;;;4970395;28;20035;-78
2022/04/10 11:03:11;;;;;;;5.35;0.50;;;10.60;71.90;;;;;;4975648;28;20053;-78
2022/04/10 11:05:38;;;;;;;5.45;0.68;;;10.70;70.60;;;;;;4984920;28;20492;-78
2022/04/10 11:08:13;;;;;;;3.88;0.40;;;10.50;68.60;;;;;;4969397;28;20043;-78
2022/04/10 11:11:00;;;;;;;3.90;0.40;;;10.20;67.70;;;;;;4981508;28;20129;-78
2022/04/10 11:13:38;;;;;;;3.10;0.50;;;10.00;66.30;;;;;;4972132;28;20544;-78
2022/04/10 11:16:14;;;;;;;3.72;0.52;;;10.10;65.20;;;;;;4971287;28;20046;-78
2022/04/10 11:18:49;;;;;;;2.22;0.50;;;10.40;69.30;;;;;;4974607;28;20124;-78
2022/04/10 11:21:18;;;;;;;4.30;0.50;;;10.50;66.90;;;;;;5005366;28;20094;-78
2022/04/10 11:23:47;;;;;;;2.00;0.43;;;10.40;67.10;;;;;;4969121;28;20496;-79
2022/04/10 11:26:20;;;;;;;2.55;0.43;;;10.20;65.00;;;;;;5011113;28;20607;-78
2022/04/10 11:28:55;;;;;;;3.53;0.50;;;9.90;62.90;;;;;;5003291;28;20161;-78
2022/04/10 11:31:35;;;;;;;2.28;0.40;;;9.80;65.20;;;;;;4981113;28;20050;-78
2022/04/10 11:34:23;;;;;;;2.95;0.40;;;10.00;68.40;;;;;;4974420;28;20054;-78
2022/04/10 11:36:52;;;;;;;3.25;0.60;;;10.30;68.30;;;;;;4987287;28;20038;-78
2022/04/10 11:39:48;;;;;;;4.25;0.60;;;10.60;67.40;;;;;;4981324;28;20050;-77
2022/04/10 11:42:15;;;;;;;5.68;0.55;;;10.70;60.60;;;;;;4953847;28;20069;-78
2022/04/10 11:44:42;;;;;;;3.20;0.50;;;11.00;63.80;;;;;;4995482;28;20040;-78
2022/04/10 11:47:11;;;;;;;3.95;0.65;;;10.90;63.40;;;;;;4973924;28;20455;-78
2022/04/10 11:49:37;;;;;;;7.25;0.63;;;10.80;64.20;;;;;;4981382;28;20045;-78
2022/04/10 11:52:03;;;;;;;2.50;0.35;;;10.70;64.70;;;;;;4972434;28;20041;-78
2022/04/10 11:54:35;;;;;;;3.60;0.40;;;10.50;64.50;;;;;;4993431;28;20042;-78
2022/04/10 11:57:06;;;;;;;5.07;0.60;;;10.40;65.10;;;;;;4975435;28;20050;-78
2022/04/10 11:59:34;;;;;;;6.32;0.65;;;10.50;66.80;;;;;;4976837;28;20388;-77
2022/04/10 12:02:00;;;;;;;3.97;0.50;;;10.60;63.40;;;;;;4978370;28;20100;-78
2022/04/10 12:04:27;;;;;;;6.05;0.40;;;10.60;63.60;;;;;;4972247;28;20038;-78
2022/04/10 12:06:53;;;;;;;2.50;0.40;;;10.60;64.00;;;;;;4985365;28;20110;-77
2022/04/10 12:09:18;;;;;;;4.38;0.70;;;10.60;64.80;;;;;;4990627;28;20062;-78
2022/04/10 12:11:44;;;;;;;5.57;0.75;;;10.90;66.10;;;;;;4999732;28;20496;-79
2022/04/10 12:14:24;;;;;;;5.88;0.80;;;11.00;62.70;;;;;;4940021;28;20074;-83
2022/04/10 12:16:51;;;;;;;3.83;0.57;;;11.00;62.00;;;;;;4993358;28;20156;-82
2022/04/10 12:19:34;;;;;;;5.88;0.80;;;10.90;61.20;;;;;;4974108;28;20042;-82
2022/04/10 12:22:03;;;;;;;3.90;1.02;;;10.90;61.20;;;;;;4983452;28;20046;-82
2022/04/10 12:24:30;;;;;;;2.95;0.47;;;11.00;64.20;;;;;;4985789;28;20034;-82
2022/04/10 12:26:57;;;;;;;3.80;0.52;;;11.00;63.10;;;;;;4970510;28;20050;-82
2022/04/10 12:29:23;;;;;;;5.68;0.70;;;11.10;62.00;;;;;;4970306;28;20476;-77
2022/04/10 12:31:50;;;;;;;2.95;0.75;;;11.10;60.00;;;;;;4986521;28;20423;-79
2022/04/10 12:34:17;;;;;;;5.50;0.47;;;11.10;59.80;;;;;;4976355;28;20483;-79
2022/04/10 12:36:50;;;;;;;3.17;0.40;;;11.10;60.40;;;;;;4975932;28;20364;-79
2022/04/10 12:39:27;;;;;;;2.72;0.43;;;11.00;58.20;;;;;;4977536;28;20121;-79
2022/04/10 12:42:01;;;;;;;3.63;0.45;;;11.00;59.70;;;;;;5002814;28;20126;-79
2022/04/10 12:44:28;;;;;;;2.38;0.30;;;11.10;61.60;;;;;;4939358;28;20125;-78
2022/04/10 12:46:53;;;;;;;4.28;0.50;;;11.20;57.60;;;;;;4986602;28;20047;-78
2022/04/10 12:49:19;;;;;;;2.25;0.30;;;11.20;58.50;;;;;;4977718;28;20039;-78
2022/04/10 12:52:00;;;;;;;2.67;0.50;;;11.20;55.40;;;;;;4972065;28;20238;-79
2022/04/10 12:54:46;;;;;;;3.22;0.50;;;11.10;56.70;;;;;;4971054;28;20553;-77
2022/04/10 12:57:24;;;;;;;5.40;0.40;;;11.20;59.70;;;;;;5002141;28;20054;-79
2022/04/10 12:59:50;;;;;;;2.17;0.30;;;11.50;58.70;;;;;;4984800;28;20046;-78
2022/04/10 13:02:21;;;;;;;3.13;0.55;;;11.80;57.60;;;;;;4952097;28;20047;-78